sensor_id;sensor_type;location;lat;lon;timestamp;pressure;altitude;pressure_sealevel;temperature;humidity
20015;BME280;61787;42.022;23.078;2023-07-13T00:00:23;96976.72;;;25.74;60.19
20015;BME280;61787;42.022;23.078;2023-07-13T00:01:24;96973.63;;;25.72;60.29
20015;BME280;61787;42.022;23.078;2023-07-13T00:02:26;96980.31;;;25.71;60.22
20015;BME280;61787;42.022;23.078;2023-07-13T00:03:28;96983.06;;;25.71;60.28
20015;BME280;61787;42.022;23.078;2023-07-13T00:04:36;96979.13;;;25.72;60.26
20015;BME280;61787;42.022;23.078;2023-07-13T00:05:38;96976.78;;;25.71;60.58
20015;BME280;61787;42.022;23.078;2023-07-13T00:06:39;96981.50;;;25.70;60.58
20015;BME280;61787;42.022;23.078;2023-07-13T00:07:41;96980.22;;;25.59;61.56
20015;BME280;61787;42.022;23.078;2023-07-13T00:08:43;96974.25;;;25.44;62.56
20015;BME280;61787;42.022;23.078;2023-07-13T00:09:45;96979.19;;;25.33;63.18
20015;BME280;61787;42.022;23.078;2023-07-13T00:10:46;96972.38;;;25.21;63.49
20015;BME280;61787;42.022;23.078;2023-07-13T00:11:54;96973.66;;;25.17;63.80
20015;BME280;61787;42.022;23.078;2023-07-13T00:12:56;96976.84;;;24.95;64.98
20015;BME280;61787;42.022;23.078;2023-07-13T00:13:58;96981.44;;;24.59;66.13
20015;BME280;61787;42.022;23.078;2023-07-13T00:15:02;96971.63;;;24.18;68.23
20015;BME280;61787;42.022;23.078;2023-07-13T00:16:05;96977.63;;;24.10;68.82
20015;BME280;61787;42.022;23.078;2023-07-13T00:17:06;96971.00;;;24.07;69.09
20015;BME280;61787;42.022;23.078;2023-07-13T00:18:08;96977.91;;;24.15;68.81
20015;BME280;61787;42.022;23.078;2023-07-13T00:19:11;96970.84;;;24.18;68.90
20015;BME280;61787;42.022;23.078;2023-07-13T00:20:13;96977.75;;;24.26;68.48
20015;BME280;61787;42.022;23.078;2023-07-13T00:21:15;96974.81;;;24.37;68.00
20015;BME280;61787;42.022;23.078;2023-07-13T00:22:16;96973.91;;;24.43;67.78
20015;BME280;61787;42.022;23.078;2023-07-13T00:23:19;96967.53;;;24.50;67.69
20015;BME280;61787;42.022;23.078;2023-07-13T00:24:21;96969.09;;;24.51;67.69
20015;BME280;61787;42.022;23.078;2023-07-13T00:25:25;96971.47;;;24.49;67.30
20015;BME280;61787;42.022;23.078;2023-07-13T00:26:29;96972.31;;;24.46;67.81
20015;BME280;61787;42.022;23.078;2023-07-13T00:27:33;96966.06;;;24.45;67.65
20015;BME280;61787;42.022;23.078;2023-07-13T00:28:35;96969.91;;;24.48;67.39
20015;BME280;61787;42.022;23.078;2023-07-13T00:29:37;96967.53;;;24.50;67.57
20015;BME280;61787;42.022;23.078;2023-07-13T00:30:39;96972.13;;;24.56;67.51
20015;BME280;61787;42.022;23.078;2023-07-13T00:31:41;96970.00;;;24.64;67.23
20015;BME280;61787;42.022;23.078;2023-07-13T00:32:43;96967.94;;;24.68;67.00
20015;BME280;61787;42.022;23.078;2023-07-13T00:33:45;96982.72;;;24.74;67.05
20015;BME280;61787;42.022;23.078;2023-07-13T00:34:46;96974.16;;;24.72;66.73
20015;BME280;61787;42.022;23.078;2023-07-13T00:35:49;96970.56;;;24.75;66.52
20015;BME280;61787;42.022;23.078;2023-07-13T00:36:51;96968.19;;;24.77;66.01
20015;BME280;61787;42.022;23.078;2023-07-13T00:37:52;96968.53;;;24.79;66.09
20015;BME280;61787;42.022;23.078;2023-07-13T00:38:54;96971.63;;;24.81;66.21
20015;BME280;61787;42.022;23.078;2023-07-13T00:39:56;96979.00;;;24.84;65.96
20015;BME280;61787;42.022;23.078;2023-07-13T00:40:58;96969.78;;;24.75;66.53
20015;BME280;61787;42.022;23.078;2023-07-13T00:42:00;96976.91;;;24.72;66.64
20015;BME280;61787;42.022;23.078;2023-07-13T00:43:04;96969.50;;;24.69;66.64
20015;BME280;61787;42.022;23.078;2023-07-13T00:44:13;96973.44;;;24.68;66.98
20015;BME280;61787;42.022;23.078;2023-07-13T00:46:21;96973.03;;;24.70;66.86
20015;BME280;61787;42.022;23.078;2023-07-13T00:47:24;96972.63;;;24.71;66.64
20015;BME280;61787;42.022;23.078;2023-07-13T00:48:27;96971.75;;;24.74;66.40
20015;BME280;61787;42.022;23.078;2023-07-13T00:49:32;96972.91;;;24.77;66.46
20015;BME280;61787;42.022;23.078;2023-07-13T00:50:35;96967.94;;;24.68;66.99
20015;BME280;61787;42.022;23.078;2023-07-13T00:51:40;96971.91;;;24.67;67.19
20015;BME280;61787;42.022;23.078;2023-07-13T00:52:45;96972.75;;;24.64;67.09
20015;BME280;61787;42.022;23.078;2023-07-13T00:53:47;96970.41;;;24.62;67.33
20015;BME280;61787;42.022;23.078;2023-07-13T00:54:49;96976.13;;;24.52;67.04
20015;BME280;61787;42.022;23.078;2023-07-13T00:55:53;96970.44;;;24.19;68.92
20015;BME280;61787;42.022;23.078;2023-07-13T00:57:00;96971.78;;;23.85;70.52
20015;BME280;61787;42.022;23.078;2023-07-13T00:58:03;96974.72;;;23.44;72.82
20015;BME280;61787;42.022;23.078;2023-07-13T00:59:07;96978.94;;;23.21;73.84
20015;BME280;61787;42.022;23.078;2023-07-13T01:00:11;96972.47;;;23.08;75.01
20015;BME280;61787;42.022;23.078;2023-07-13T01:01:13;96972.16;;;23.03;75.48
20015;BME280;61787;42.022;23.078;2023-07-13T01:02:15;96979.16;;;23.04;74.98
20015;BME280;61787;42.022;23.078;2023-07-13T01:03:18;96970.13;;;23.07;75.10
20015;BME280;61787;42.022;23.078;2023-07-13T01:04:20;96977.47;;;23.13;75.11
20015;BME280;61787;42.022;23.078;2023-07-13T01:05:25;96977.47;;;23.13;75.34
20015;BME280;61787;42.022;23.078;2023-07-13T01:06:27;96973.50;;;23.18;75.22
20015;BME280;61787;42.022;23.078;2023-07-13T01:07:29;96973.13;;;23.16;75.28
20015;BME280;61787;42.022;23.078;2023-07-13T01:08:30;96974.38;;;23.11;75.29
20015;BME280;61787;42.022;23.078;2023-07-13T01:09:32;96968.97;;;23.04;75.88
20015;BME280;61787;42.022;23.078;2023-07-13T01:10:34;96975.34;;;22.98;76.32
20015;BME280;61787;42.022;23.078;2023-07-13T01:11:40;96969.88;;;22.94;75.58
20015;BME280;61787;42.022;23.078;2023-07-13T01:12:42;96974.63;;;22.90;75.81
20015;BME280;61787;42.022;23.078;2023-07-13T01:13:44;96970.66;;;22.94;75.55
20015;BME280;61787;42.022;23.078;2023-07-13T01:14:46;96975.22;;;23.05;75.31
20015;BME280;61787;42.022;23.078;2023-07-13T01:15:49;96969.72;;;23.08;74.80
20015;BME280;61787;42.022;23.078;2023-07-13T01:16:52;96970.78;;;23.18;74.63
20015;BME280;61787;42.022;23.078;2023-07-13T01:17:55;96971.09;;;23.23;74.72
20015;BME280;61787;42.022;23.078;2023-07-13T01:18:57;96972.53;;;23.31;74.18
20015;BME280;61787;42.022;23.078;2023-07-13T01:20:02;96965.03;;;23.35;73.90
20015;BME280;61787;42.022;23.078;2023-07-13T01:21:06;96963.84;;;23.36;73.65
20015;BME280;61787;42.022;23.078;2023-07-13T01:22:14;96968.88;;;23.42;73.52
20015;BME280;61787;42.022;23.078;2023-07-13T01:23:16;96970.00;;;23.48;73.30
20015;BME280;61787;42.022;23.078;2023-07-13T01:24:18;96965.16;;;23.55;73.02
20015;BME280;61787;42.022;23.078;2023-07-13T01:25:20;96967.50;;;23.57;73.22
20015;BME280;61787;42.022;23.078;2023-07-13T01:26:21;96970.97;;;23.61;72.73
20015;BME280;61787;42.022;23.078;2023-07-13T01:27:25;96972.81;;;23.67;72.42
20015;BME280;61787;42.022;23.078;2023-07-13T01:28:28;96975.09;;;23.72;72.16
20015;BME280;61787;42.022;23.078;2023-07-13T01:29:30;96972.72;;;23.74;71.93
20015;BME280;61787;42.022;23.078;2023-07-13T01:30:32;96977.72;;;23.79;71.61
20015;BME280;61787;42.022;23.078;2023-07-13T01:31:34;96979.56;;;23.86;71.41
20015;BME280;61787;42.022;23.078;2023-07-13T01:32:36;96981.13;;;23.87;71.20
20015;BME280;61787;42.022;23.078;2023-07-13T01:33:40;96976.34;;;23.91;70.97
20015;BME280;61787;42.022;23.078;2023-07-13T01:34:41;96979.75;;;23.99;70.75
20015;BME280;61787;42.022;23.078;2023-07-13T01:35:46;96975.41;;;24.01;70.36
20015;BME280;61787;42.022;23.078;2023-07-13T01:36:48;96985.53;;;24.04;70.59
20015;BME280;61787;42.022;23.078;2023-07-13T01:37:49;96980.06;;;24.04;70.39
20015;BME280;61787;42.022;23.078;2023-07-13T01:38:52;96983.50;;;24.08;70.37
20015;BME280;61787;42.022;23.078;2023-07-13T01:39:53;96975.66;;;24.10;69.93
20015;BME280;61787;42.022;23.078;2023-07-13T01:40:55;96976.00;;;24.12;69.52
20015;BME280;61787;42.022;23.078;2023-07-13T01:41:57;96967.72;;;24.16;69.40
20015;BME280;61787;42.022;23.078;2023-07-13T01:42:58;96979.06;;;24.18;69.78
20015;BME280;61787;42.022;23.078;2023-07-13T01:44:00;96975.91;;;24.19;69.17
20015;BME280;61787;42.022;23.078;2023-07-13T01:45:02;96976.69;;;24.20;69.42
20015;BME280;61787;42.022;23.078;2023-07-13T01:46:04;96973.50;;;24.21;69.38
20015;BME280;61787;42.022;23.078;2023-07-13T01:47:23;96982.50;;;24.22;69.48
20015;BME280;61787;42.022;23.078;2023-07-13T01:48:27;96978.25;;;24.21;69.72
20015;BME280;61787;42.022;23.078;2023-07-13T01:49:29;96975.91;;;24.19;69.69
20015;BME280;61787;42.022;23.078;2023-07-13T01:50:31;96979.44;;;24.20;70.14
20015;BME280;61787;42.022;23.078;2023-07-13T01:51:32;96985.69;;;24.20;70.03
20015;BME280;61787;42.022;23.078;2023-07-13T01:52:34;96981.03;;;24.17;70.10
20015;BME280;61787;42.022;23.078;2023-07-13T01:53:35;96986.09;;;24.19;70.17
20015;BME280;61787;42.022;23.078;2023-07-13T01:54:37;96986.09;;;24.19;69.87
20015;BME280;61787;42.022;23.078;2023-07-13T01:55:39;96982.19;;;24.16;69.85
20015;BME280;61787;42.022;23.078;2023-07-13T01:56:41;96986.13;;;24.15;69.88
20015;BME280;61787;42.022;23.078;2023-07-13T01:57:43;96976.69;;;24.16;69.94
20015;BME280;61787;42.022;23.078;2023-07-13T01:58:45;96986.13;;;24.15;69.89
20015;BME280;61787;42.022;23.078;2023-07-13T01:59:47;96985.31;;;24.18;69.84
20015;BME280;61787;42.022;23.078;2023-07-13T02:00:49;96977.47;;;24.20;69.75
20015;BME280;61787;42.022;23.078;2023-07-13T02:01:52;96993.91;;;24.20;69.64
20015;BME280;61787;42.022;23.078;2023-07-13T02:02:54;96989.97;;;24.21;69.53
20015;BME280;61787;42.022;23.078;2023-07-13T02:03:56;96984.53;;;24.18;69.51
20015;BME280;61787;42.022;23.078;2023-07-13T02:04:58;96986.13;;;24.15;69.94
20015;BME280;61787;42.022;23.078;2023-07-13T02:05:59;96994.84;;;24.10;70.37
20015;BME280;61787;42.022;23.078;2023-07-13T02:07:01;96994.47;;;24.08;70.37
20015;BME280;61787;42.022;23.078;2023-07-13T02:08:02;96992.97;;;24.04;70.78
20015;BME280;61787;42.022;23.078;2023-07-13T02:09:04;96996.50;;;24.04;70.66
20015;BME280;61787;42.022;23.078;2023-07-13T02:10:07;97002.75;;;24.05;70.54
20015;BME280;61787;42.022;23.078;2023-07-13T02:11:10;96996.09;;;24.06;70.50
20015;BME280;61787;42.022;23.078;2023-07-13T02:12:12;96991.34;;;24.06;70.68
20015;BME280;61787;42.022;23.078;2023-07-13T02:13:13;96996.50;;;24.04;70.54
20015;BME280;61787;42.022;23.078;2023-07-13T02:14:15;96993.38;;;24.02;70.69
20015;BME280;61787;42.022;23.078;2023-07-13T02:15:17;96989.94;;;23.98;70.75
20015;BME280;61787;42.022;23.078;2023-07-13T02:16:19;96991.97;;;23.94;70.80
20015;BME280;61787;42.022;23.078;2023-07-13T02:17:21;96995.88;;;23.93;70.84
20015;BME280;61787;42.022;23.078;2023-07-13T02:18:23;97000.59;;;23.93;70.98
20015;BME280;61787;42.022;23.078;2023-07-13T02:19:25;96993.56;;;23.92;70.75
20015;BME280;61787;42.022;23.078;2023-07-13T02:20:26;96992.78;;;23.91;70.70
20015;BME280;61787;42.022;23.078;2023-07-13T02:21:28;96994.66;;;23.71;71.63
20015;BME280;61787;42.022;23.078;2023-07-13T02:22:30;96987.84;;;23.56;72.34
20015;BME280;61787;42.022;23.078;2023-07-13T02:23:32;96991.78;;;23.55;72.59
20015;BME280;61787;42.022;23.078;2023-07-13T02:24:33;96994.50;;;23.55;72.34
20015;BME280;61787;42.022;23.078;2023-07-13T02:25:35;96995.81;;;23.47;72.74
20015;BME280;61787;42.022;23.078;2023-07-13T02:26:37;96991.22;;;23.36;73.09
20015;BME280;61787;42.022;23.078;2023-07-13T02:27:38;96991.28;;;23.33;73.33
20015;BME280;61787;42.022;23.078;2023-07-13T02:28:40;96989.69;;;23.35;73.17
20015;BME280;61787;42.022;23.078;2023-07-13T02:29:42;96993.19;;;23.36;73.34
20015;BME280;61787;42.022;23.078;2023-07-13T02:30:43;96977.91;;;23.38;73.28
20015;BME280;61787;42.022;23.078;2023-07-13T02:31:45;96985.66;;;23.44;72.90
20015;BME280;61787;42.022;23.078;2023-07-13T02:32:47;96996.69;;;23.36;73.08
20015;BME280;61787;42.022;23.078;2023-07-13T02:33:48;96990.03;;;23.37;73.21
20015;BME280;61787;42.022;23.078;2023-07-13T02:34:50;96984.88;;;23.43;73.17
20015;BME280;61787;42.022;23.078;2023-07-13T02:35:52;96991.88;;;23.48;72.87
20015;BME280;61787;42.022;23.078;2023-07-13T02:36:53;96990.28;;;23.50;72.50
20015;BME280;61787;42.022;23.078;2023-07-13T02:37:55;96990.28;;;23.50;72.91
20015;BME280;61787;42.022;23.078;2023-07-13T02:39:00;96991.03;;;23.54;72.94
20015;BME280;61787;42.022;23.078;2023-07-13T02:40:02;96998.03;;;23.55;72.68
20015;BME280;61787;42.022;23.078;2023-07-13T02:41:09;96998.03;;;23.55;72.79
20015;BME280;61787;42.022;23.078;2023-07-13T02:42:11;96999.16;;;23.58;72.51
20015;BME280;61787;42.022;23.078;2023-07-13T02:43:13;96999.50;;;23.60;72.61
20015;BME280;61787;42.022;23.078;2023-07-13T02:44:15;97001.84;;;23.61;72.57
20015;BME280;61787;42.022;23.078;2023-07-13T02:45:17;96998.78;;;23.59;72.81
20015;BME280;61787;42.022;23.078;2023-07-13T02:46:18;96997.56;;;23.60;72.54
20015;BME280;61787;42.022;23.078;2023-07-13T02:47:21;97002.63;;;23.62;72.64
20015;BME280;61787;42.022;23.078;2023-07-13T02:48:22;97006.56;;;23.61;72.32
20015;BME280;61787;42.022;23.078;2023-07-13T02:49:24;97005.00;;;23.60;72.36
20015;BME280;61787;42.022;23.078;2023-07-13T02:50:26;97002.63;;;23.62;72.39
20015;BME280;61787;42.022;23.078;2023-07-13T02:51:28;97003.00;;;23.64;72.13
20015;BME280;61787;42.022;23.078;2023-07-13T02:52:29;97006.47;;;23.68;72.03
20015;BME280;61787;42.022;23.078;2023-07-13T02:53:31;97014.31;;;23.66;72.07
20015;BME280;61787;42.022;23.078;2023-07-13T02:54:33;97012.75;;;23.65;71.99
20015;BME280;61787;42.022;23.078;2023-07-13T02:55:35;97008.47;;;23.64;72.04
20015;BME280;61787;42.022;23.078;2023-07-13T02:56:36;97008.19;;;23.55;72.35
20015;BME280;61787;42.022;23.078;2023-07-13T02:57:40;97003.63;;;23.48;72.71
20015;BME280;61787;42.022;23.078;2023-07-13T02:58:42;97010.75;;;23.38;73.12
20015;BME280;61787;42.022;23.078;2023-07-13T02:59:43;97006.09;;;23.35;73.47
20015;BME280;61787;42.022;23.078;2023-07-13T03:00:46;97009.97;;;23.38;73.38
20015;BME280;61787;42.022;23.078;2023-07-13T03:01:48;97009.09;;;23.45;73.31
20015;BME280;61787;42.022;23.078;2023-07-13T03:02:50;97005.91;;;23.50;72.99
20015;BME280;61787;42.022;23.078;2023-07-13T03:03:52;97012.94;;;23.54;73.00
20015;BME280;61787;42.022;23.078;2023-07-13T03:04:55;97017.16;;;23.59;72.71
20015;BME280;61787;42.022;23.078;2023-07-13T03:06:01;97008.94;;;23.59;72.59
20015;BME280;61787;42.022;23.078;2023-07-13T03:07:04;97016.69;;;23.64;72.39
20015;BME280;61787;42.022;23.078;2023-07-13T03:08:06;97013.94;;;23.64;72.32
20015;BME280;61787;42.022;23.078;2023-07-13T03:09:08;97012.75;;;23.65;72.32
20015;BME280;61787;42.022;23.078;2023-07-13T03:10:09;97010.00;;;23.65;72.13
20015;BME280;61787;42.022;23.078;2023-07-13T03:11:17;97015.94;;;23.60;72.21
20015;BME280;61787;42.022;23.078;2023-07-13T03:12:20;97008.94;;;23.59;72.31
20015;BME280;61787;42.022;23.078;2023-07-13T03:13:21;97008.94;;;23.59;72.22
20015;BME280;61787;42.022;23.078;2023-07-13T03:14:23;97009.75;;;23.56;72.42
20015;BME280;61787;42.022;23.078;2023-07-13T03:15:24;97012.59;;;23.49;72.79
20015;BME280;61787;42.022;23.078;2023-07-13T03:16:26;97011.00;;;23.51;72.71
20015;BME280;61787;42.022;23.078;2023-07-13T03:17:28;97014.09;;;23.53;72.65
20015;BME280;61787;42.022;23.078;2023-07-13T03:18:30;97009.75;;;23.56;72.33
20015;BME280;61787;42.022;23.078;2023-07-13T03:19:31;97008.16;;;23.58;72.43
20015;BME280;61787;42.022;23.078;2023-07-13T03:20:34;97014.44;;;23.55;72.62
20015;BME280;61787;42.022;23.078;2023-07-13T03:21:35;97005.84;;;23.57;72.77
20015;BME280;61787;42.022;23.078;2023-07-13T03:22:37;97015.59;;;23.58;72.41
20015;BME280;61787;42.022;23.078;2023-07-13T03:23:39;97015.94;;;23.60;72.53
20015;BME280;61787;42.022;23.078;2023-07-13T03:24:41;97012.88;;;23.58;72.61
20015;BME280;61787;42.022;23.078;2023-07-13T03:25:43;97018.34;;;23.58;72.57
20015;BME280;61787;42.022;23.078;2023-07-13T03:26:45;97009.28;;;23.61;72.45
20015;BME280;61787;42.022;23.078;2023-07-13T03:27:49;97022.94;;;23.64;72.19
20015;BME280;61787;42.022;23.078;2023-07-13T03:28:50;97023.75;;;23.61;72.59
20015;BME280;61787;42.022;23.078;2023-07-13T03:29:52;97019.31;;;23.41;73.43
20015;BME280;61787;42.022;23.078;2023-07-13T03:31:08;97022.94;;;23.34;73.76
20015;BME280;61787;42.022;23.078;2023-07-13T03:32:11;97020.25;;;23.30;73.66
20015;BME280;61787;42.022;23.078;2023-07-13T03:33:13;97017.88;;;23.32;73.60
20015;BME280;61787;42.022;23.078;2023-07-13T03:34:15;97024.06;;;23.36;73.52
20015;BME280;61787;42.022;23.078;2023-07-13T03:35:17;97016.97;;;23.43;73.03
20015;BME280;61787;42.022;23.078;2023-07-13T03:36:22;97029.44;;;23.47;72.55
20015;BME280;61787;42.022;23.078;2023-07-13T03:37:24;97022.31;;;23.53;72.46
20015;BME280;61787;42.022;23.078;2023-07-13T03:38:26;97019.16;;;23.55;72.01
20015;BME280;61787;42.022;23.078;2023-07-13T03:39:28;97028.56;;;23.54;71.97
20015;BME280;61787;42.022;23.078;2023-07-13T03:40:30;97019.91;;;23.59;71.98
20015;BME280;61787;42.022;23.078;2023-07-13T03:41:31;97021.38;;;23.63;71.43
20015;BME280;61787;42.022;23.078;2023-07-13T03:42:33;97020.16;;;23.68;71.18
20015;BME280;61787;42.022;23.078;2023-07-13T03:43:35;97030.63;;;23.73;71.28
20015;BME280;61787;42.022;23.078;2023-07-13T03:44:36;97030.63;;;23.73;71.54
20015;BME280;61787;42.022;23.078;2023-07-13T03:45:38;97026.28;;;23.75;71.61
20015;BME280;61787;42.022;23.078;2023-07-13T03:46:40;97028.16;;;23.82;71.56
20015;BME280;61787;42.022;23.078;2023-07-13T03:47:42;97024.22;;;23.83;71.78
20015;BME280;61787;42.022;23.078;2023-07-13T03:48:45;97024.94;;;23.87;71.52
20015;BME280;61787;42.022;23.078;2023-07-13T03:49:47;97031.13;;;23.91;71.56
20015;BME280;61787;42.022;23.078;2023-07-13T03:50:48;97033.06;;;23.94;71.28
20015;BME280;61787;42.022;23.078;2023-07-13T03:51:53;97029.84;;;23.99;70.90
20015;BME280;61787;42.022;23.078;2023-07-13T03:52:54;97029.38;;;24.04;70.54
20015;BME280;61787;42.022;23.078;2023-07-13T03:53:57;97031.72;;;24.06;69.79
20015;BME280;61787;42.022;23.078;2023-07-13T03:54:59;97027.91;;;23.96;70.22
20015;BME280;61787;42.022;23.078;2023-07-13T03:56:00;97031.88;;;23.95;70.71
20015;BME280;61787;42.022;23.078;2023-07-13T03:57:02;97028.66;;;24.00;71.04
20015;BME280;61787;42.022;23.078;2023-07-13T03:58:25;97030.09;;;24.08;70.74
20015;BME280;61787;42.022;23.078;2023-07-13T03:59:27;97026.16;;;24.09;70.72
20015;BME280;61787;42.022;23.078;2023-07-13T04:00:29;97037.13;;;24.09;70.34
20015;BME280;61787;42.022;23.078;2023-07-13T04:01:31;97033.19;;;24.10;70.46
20015;BME280;61787;42.022;23.078;2023-07-13T04:02:33;97028.78;;;24.16;70.33
20015;BME280;61787;42.022;23.078;2023-07-13T04:03:35;97025.25;;;24.19;70.21
20015;BME280;61787;42.022;23.078;2023-07-13T04:04:37;97022.03;;;24.25;69.99
20015;BME280;61787;42.022;23.078;2023-07-13T04:05:42;97024.41;;;24.23;69.66
20015;BME280;61787;42.022;23.078;2023-07-13T04:06:44;97018.25;;;24.15;69.38
20015;BME280;61787;42.022;23.078;2023-07-13T04:07:45;97021.63;;;23.99;70.00
20015;BME280;61787;42.022;23.078;2023-07-13T04:08:53;97027.09;;;23.99;70.20
20015;BME280;61787;42.022;23.078;2023-07-13T04:09:55;97024.00;;;23.97;69.89
20015;BME280;61787;42.022;23.078;2023-07-13T04:10:57;97025.56;;;23.98;70.06
20015;BME280;61787;42.022;23.078;2023-07-13T04:11:59;97023.94;;;24.01;69.60
20015;BME280;61787;42.022;23.078;2023-07-13T04:13:01;97029.69;;;24.10;69.23
20015;BME280;61787;42.022;23.078;2023-07-13T04:14:03;97030.34;;;24.17;69.41
20015;BME280;61787;42.022;23.078;2023-07-13T04:15:05;97026.66;;;24.28;69.13
20015;BME280;61787;42.022;23.078;2023-07-13T04:16:07;97028.81;;;24.40;68.64
20015;BME280;61787;42.022;23.078;2023-07-13T04:17:09;97028.69;;;24.47;68.99
20015;BME280;61787;42.022;23.078;2023-07-13T04:18:11;97025.47;;;24.52;68.48
20015;BME280;61787;42.022;23.078;2023-07-13T04:19:12;97023.00;;;24.57;68.47
20015;BME280;61787;42.022;23.078;2023-07-13T04:20:14;97030.25;;;24.68;67.44
20015;BME280;61787;42.022;23.078;2023-07-13T04:21:16;97020.44;;;24.70;67.43
20015;BME280;61787;42.022;23.078;2023-07-13T04:22:18;97024.28;;;24.73;67.47
20015;BME280;61787;42.022;23.078;2023-07-13T04:23:19;97035.84;;;24.84;67.15
20015;BME280;61787;42.022;23.078;2023-07-13T04:24:21;97034.56;;;24.92;67.42
20015;BME280;61787;42.022;23.078;2023-07-13T04:25:23;97037.50;;;25.01;66.94
20015;BME280;61787;42.022;23.078;2023-07-13T04:26:25;97035.38;;;25.09;66.82
20015;BME280;61787;42.022;23.078;2023-07-13T04:27:27;97038.34;;;25.18;66.69
20015;BME280;61787;42.022;23.078;2023-07-13T04:28:30;97044.53;;;25.22;66.26
20015;BME280;61787;42.022;23.078;2023-07-13T04:29:32;97038.19;;;25.25;65.96
20015;BME280;61787;42.022;23.078;2023-07-13T04:30:34;97044.91;;;25.24;65.27
20015;BME280;61787;42.022;23.078;2023-07-13T04:31:36;97037.69;;;25.30;65.17
20015;BME280;61787;42.022;23.078;2023-07-13T04:32:37;97043.47;;;25.35;64.78
20015;BME280;61787;42.022;23.078;2023-07-13T04:33:39;97039.44;;;25.40;64.96
20015;BME280;61787;42.022;23.078;2023-07-13T04:34:41;97038.66;;;25.39;65.20
20015;BME280;61787;42.022;23.078;2023-07-13T04:35:43;97036.19;;;25.45;64.85
20015;BME280;61787;42.022;23.078;2023-07-13T04:36:48;97040.72;;;25.55;63.92
20015;BME280;61787;42.022;23.078;2023-07-13T04:37:50;97031.47;;;25.65;63.59
20015;BME280;61787;42.022;23.078;2023-07-13T04:38:51;97029.94;;;25.80;62.29
20015;BME280;61787;42.022;23.078;2023-07-13T04:39:53;97031.25;;;25.92;61.77
20015;BME280;61787;42.022;23.078;2023-07-13T04:40:59;97031.88;;;26.00;61.73
20015;BME280;61787;42.022;23.078;2023-07-13T04:42:01;97028.59;;;26.05;62.11
20015;BME280;61787;42.022;23.078;2023-07-13T04:43:03;97033.84;;;26.15;61.65
20015;BME280;61787;42.022;23.078;2023-07-13T04:44:05;97033.75;;;26.19;61.45
20015;BME280;61787;42.022;23.078;2023-07-13T04:45:07;97026.59;;;26.21;61.24
20015;BME280;61787;42.022;23.078;2023-07-13T04:46:14;97025.78;;;26.24;61.61
20015;BME280;61787;42.022;23.078;2023-07-13T04:47:20;97026.22;;;26.23;61.15
20015;BME280;61787;42.022;23.078;2023-07-13T04:48:22;97034.63;;;26.16;61.77
20015;BME280;61787;42.022;23.078;2023-07-13T04:49:24;97022.59;;;26.10;61.85
20015;BME280;61787;42.022;23.078;2023-07-13T04:50:25;97025.50;;;26.03;61.70
20015;BME280;61787;42.022;23.078;2023-07-13T04:51:27;97027.06;;;26.04;62.22
20015;BME280;61787;42.022;23.078;2023-07-13T04:52:29;97023.59;;;25.83;61.39
20015;BME280;61787;42.022;23.078;2023-07-13T04:53:31;97018.94;;;25.64;62.48
20015;BME280;61787;42.022;23.078;2023-07-13T04:54:34;97024.22;;;25.55;62.45
20015;BME280;61787;42.022;23.078;2023-07-13T04:55:36;97024.09;;;25.62;63.03
20015;BME280;61787;42.022;23.078;2023-07-13T04:56:38;97024.66;;;25.54;63.92
20015;BME280;61787;42.022;23.078;2023-07-13T04:57:40;97020.44;;;25.49;64.11
20015;BME280;61787;42.022;23.078;2023-07-13T04:58:41;97027.91;;;25.48;64.62
20015;BME280;61787;42.022;23.078;2023-07-13T04:59:43;97024.22;;;25.55;65.03
20015;BME280;61787;42.022;23.078;2023-07-13T05:00:45;97025.78;;;25.56;63.39
20015;BME280;61787;42.022;23.078;2023-07-13T05:01:46;97027.94;;;25.45;63.77
20015;BME280;61787;42.022;23.078;2023-07-13T05:02:48;97028.31;;;25.47;63.66
20015;BME280;61787;42.022;23.078;2023-07-13T05:03:50;97031.22;;;25.60;63.30
20015;BME280;61787;42.022;23.078;2023-07-13T05:04:52;97017.75;;;25.81;63.11
20015;BME280;61787;42.022;23.078;2023-07-13T05:05:55;97023.94;;;26.02;62.60
20015;BME280;61787;42.022;23.078;2023-07-13T05:06:59;97035.31;;;26.20;62.21
20015;BME280;61787;42.022;23.078;2023-07-13T05:08:01;97031.81;;;26.36;61.91
20015;BME280;61787;42.022;23.078;2023-07-13T05:09:03;97034.59;;;26.48;61.44
20015;BME280;61787;42.022;23.078;2023-07-13T05:10:05;97036.66;;;26.60;60.10
20015;BME280;61787;42.022;23.078;2023-07-13T05:11:07;97032.31;;;26.76;59.98
20015;BME280;61787;42.022;23.078;2023-07-13T05:12:09;97037.66;;;26.83;58.93
20015;BME280;61787;42.022;23.078;2023-07-13T05:13:11;97037.97;;;26.85;60.57
20015;BME280;61787;42.022;23.078;2023-07-13T05:14:13;97034.03;;;26.86;59.86
20015;BME280;61787;42.022;23.078;2023-07-13T05:15:15;97030.91;;;26.84;59.32
20015;BME280;61787;42.022;23.078;2023-07-13T05:16:17;97034.41;;;26.88;58.72
20015;BME280;61787;42.022;23.078;2023-07-13T05:17:19;97031.38;;;26.82;58.92
20015;BME280;61787;42.022;23.078;2023-07-13T05:18:21;97035.84;;;26.92;58.50
20015;BME280;61787;42.022;23.078;2023-07-13T05:19:22;97035.88;;;27.05;58.61
20015;BME280;61787;42.022;23.078;2023-07-13T05:20:24;97037.31;;;26.81;58.66
20015;BME280;61787;42.022;23.078;2023-07-13T05:21:26;97034.41;;;26.71;59.29
20015;BME280;61787;42.022;23.078;2023-07-13T05:22:27;97028.69;;;26.79;59.30
20015;BME280;61787;42.022;23.078;2023-07-13T05:23:30;97025.94;;;26.95;58.91
20015;BME280;61787;42.022;23.078;2023-07-13T05:24:32;97033.78;;;27.09;58.84
20015;BME280;61787;42.022;23.078;2023-07-13T05:25:34;97031.06;;;27.22;58.26
20015;BME280;61787;42.022;23.078;2023-07-13T05:26:35;97028.31;;;27.34;58.49
20015;BME280;61787;42.022;23.078;2023-07-13T05:27:37;97025.72;;;27.43;57.97